createdAt,value
2022-12-08T00:01:32.899Z,7.53
2022-12-08T00:04:01.311Z,8.00
2022-12-08T00:07:01.636Z,8.02
2022-12-08T00:09:39.433Z,7.45
2022-12-08T00:12:16.721Z,8.60
2022-12-08T00:14:46.587Z,8.68
2022-12-08T00:17:15.970Z,8.00
2022-12-08T00:19:43.998Z,8.63
2022-12-08T00:22:12.910Z,7.70
2022-12-08T00:24:41.415Z,8.48
2022-12-08T00:27:10.737Z,8.38
2022-12-08T00:29:38.232Z,8.68
2022-12-08T00:32:06.503Z,9.88
2022-12-08T00:34:34.055Z,8.57
2022-12-08T00:37:01.467Z,8.13
2022-12-08T00:39:28.795Z,8.88
2022-12-08T00:42:14.669Z,9.15
2022-12-08T00:44:44.427Z,7.90
2022-12-08T00:47:13.008Z,7.63
2022-12-08T00:49:40.061Z,8.60
2022-12-08T00:52:07.632Z,8.55
2022-12-08T00:54:35.111Z,8.07
2022-12-08T00:57:02.797Z,8.63
2022-12-08T00:59:29.878Z,8.23
2022-12-08T01:01:57.294Z,8.27
2022-12-08T01:04:26.057Z,7.72
2022-12-08T01:06:53.491Z,8.60
2022-12-08T01:09:20.680Z,8.20
2022-12-08T01:11:49.532Z,7.95
2022-12-08T01:14:16.780Z,8.23
2022-12-08T01:16:44.427Z,8.50
2022-12-08T01:19:14.455Z,7.95
2022-12-08T01:21:41.977Z,7.93
2022-12-08T01:24:14.356Z,8.88
2022-12-08T01:26:41.903Z,8.65
2022-12-08T01:29:09.850Z,7.90
2022-12-08T01:31:37.950Z,8.52
2022-12-08T01:34:05.330Z,8.35
2022-12-08T01:36:37.062Z,8.80
2022-12-08T01:39:07.571Z,7.78
2022-12-08T01:41:38.052Z,8.52
2022-12-08T01:44:08.400Z,8.05
2022-12-08T01:46:38.663Z,8.32
2022-12-08T01:49:10.729Z,8.23
2022-12-08T01:51:49.360Z,8.18
2022-12-08T01:54:17.159Z,8.88
2022-12-08T01:56:52.476Z,7.80
2022-12-08T01:59:20.338Z,7.60
2022-12-08T02:01:52.143Z,8.48
2022-12-08T02:04:19.314Z,8.82
2022-12-08T02:06:49.123Z,8.35
2022-12-08T02:09:16.573Z,9.00
2022-12-08T02:11:44.101Z,9.25
2022-12-08T02:14:14.655Z,8.98
2022-12-08T02:17:19.479Z,9.63
2022-12-08T02:20:07.951Z,8.55
2022-12-08T02:22:53.918Z,9.10
2022-12-08T02:25:28.098Z,8.68
2022-12-08T02:28:07.797Z,8.20
2022-12-08T02:31:03.493Z,8.82
2022-12-08T02:33:55.525Z,9.13
2022-12-08T02:36:42.187Z,8.90
2022-12-08T02:39:15.671Z,9.00
2022-12-08T02:41:57.082Z,8.70
2022-12-08T02:44:33.259Z,8.80
2022-12-08T02:47:24.565Z,8.98
2022-12-08T02:49:51.986Z,8.35
2022-12-08T02:52:18.986Z,8.23
2022-12-08T02:54:57.404Z,8.93
2022-12-08T02:57:48.802Z,8.48
2022-12-08T03:00:19.056Z,9.15
2022-12-08T03:03:01.434Z,9.35
2022-12-08T03:05:53.500Z,7.82
2022-12-08T03:08:33.086Z,8.32
2022-12-08T03:11:11.741Z,8.88
2022-12-08T03:13:46.438Z,8.15
2022-12-08T03:16:17.629Z,7.55
2022-12-08T03:18:50.843Z,9.07
2022-12-08T03:21:21.067Z,6.95
2022-12-08T03:23:52.411Z,7.95
2022-12-08T03:26:50.323Z,8.63
2022-12-08T03:29:17.798Z,9.43
2022-12-08T03:31:52.189Z,8.07
2022-12-08T03:34:19.995Z,8.18
2022-12-08T03:36:47.447Z,8.57
2022-12-08T03:39:14.851Z,8.30
2022-12-08T03:41:42.539Z,9.43
2022-12-08T03:44:09.620Z,8.90
2022-12-08T03:46:36.959Z,9.70
2022-12-08T03:49:04.348Z,10.25
2022-12-08T03:51:33.904Z,9.43
2022-12-08T03:54:01.013Z,8.95
2022-12-08T03:56:30.700Z,9.15
2022-12-08T03:58:58.587Z,10.10
2022-12-08T04:01:27.521Z,10.00
2022-12-08T04:03:55.000Z,10.05
2022-12-08T04:06:22.596Z,9.10
2022-12-08T04:08:51.241Z,8.95
2022-12-08T04:11:19.244Z,9.30
2022-12-08T04:13:46.585Z,9.73
2022-12-08T04:16:21.285Z,10.30
2022-12-08T04:18:49.004Z,9.85
2022-12-08T04:21:18.213Z,10.88
2022-12-08T04:23:46.278Z,10.15
2022-12-08T04:26:14.208Z,8.95
2022-12-08T04:28:41.539Z,9.48
2022-12-08T04:31:09.021Z,7.82
2022-12-08T04:33:36.438Z,9.30
2022-12-08T04:36:05.705Z,8.30
2022-12-08T04:38:33.588Z,8.73
2022-12-08T04:41:01.332Z,8.45
2022-12-08T04:43:28.570Z,8.55
2022-12-08T04:45:55.997Z,8.30
2022-12-08T04:48:23.514Z,8.32
2022-12-08T04:50:51.592Z,8.02
2022-12-08T04:53:19.790Z,8.27
2022-12-08T04:55:49.567Z,8.57
2022-12-08T04:58:19.087Z,7.88
2022-12-08T05:00:47.392Z,8.40
2022-12-08T05:03:14.820Z,8.20
2022-12-08T05:05:43.543Z,8.23
2022-12-08T05:08:11.153Z,7.78
2022-12-08T05:10:38.827Z,7.85
2022-12-08T05:13:06.108Z,7.80
2022-12-08T05:15:36.278Z,7.25
2022-12-08T05:18:06.094Z,8.27
2022-12-08T05:20:34.340Z,8.00
2022-12-08T05:23:01.754Z,8.68
2022-12-08T05:25:29.233Z,7.75
2022-12-08T05:28:17.486Z,8.15
2022-12-08T05:33:10.784Z,7.93
2022-12-08T05:35:38.238Z,8.10
2022-12-08T05:38:06.053Z,8.23
2022-12-08T05:40:33.452Z,7.53
2022-12-08T05:43:00.491Z,9.02
2022-12-08T05:45:28.143Z,7.13
2022-12-08T05:47:55.305Z,7.18
2022-12-08T05:50:22.651Z,7.50
2022-12-08T05:52:49.767Z,6.78
2022-12-08T05:55:17.239Z,7.47
2022-12-08T05:57:44.509Z,7.55
2022-12-08T06:00:12.639Z,7.43
2022-12-08T06:02:39.773Z,8.68
2022-12-08T06:05:07.747Z,11.43
2022-12-08T06:07:34.871Z,10.80
2022-12-08T06:10:02.874Z,8.82
2022-12-08T06:12:30.251Z,8.52
2022-12-08T06:14:57.629Z,8.15
2022-12-08T06:17:24.664Z,7.68
2022-12-08T06:19:51.995Z,7.20
2022-12-08T06:22:19.058Z,8.65
2022-12-08T06:24:46.751Z,8.43
2022-12-08T06:27:13.808Z,9.38
2022-12-08T06:29:41.235Z,8.60
2022-12-08T06:32:08.380Z,9.45
2022-12-08T06:34:35.755Z,8.98
2022-12-08T06:37:02.904Z,8.18
2022-12-08T06:39:30.386Z,8.63
2022-12-08T06:42:15.969Z,8.98
2022-12-08T06:44:43.421Z,8.70
2022-12-08T06:47:10.487Z,9.82
2022-12-08T06:49:37.839Z,10.98
2022-12-08T06:52:05.318Z,10.68
2022-12-08T06:54:32.742Z,10.40
2022-12-08T06:56:59.881Z,7.80
2022-12-08T06:59:27.375Z,8.85
2022-12-08T07:01:54.409Z,8.75
2022-12-08T07:04:21.749Z,9.30
2022-12-08T07:06:48.871Z,9.32
2022-12-08T07:09:16.556Z,9.38
2022-12-08T07:11:43.779Z,8.63
2022-12-08T07:14:11.186Z,9.05
2022-12-08T07:16:39.431Z,9.48
2022-12-08T07:19:07.114Z,7.95
2022-12-08T07:21:34.223Z,8.75
2022-12-08T07:24:02.632Z,9.00
2022-12-08T07:26:29.683Z,9.50
2022-12-08T07:28:57.034Z,9.57
2022-12-08T07:31:25.688Z,7.70
2022-12-08T07:33:53.206Z,8.95
2022-12-08T07:36:20.309Z,8.70
2022-12-08T07:38:48.232Z,8.75
2022-12-08T07:41:23.217Z,8.93
2022-12-08T07:43:52.164Z,9.63
2022-12-08T07:46:22.145Z,9.57
2022-12-08T07:48:50.116Z,9.10
2022-12-08T07:51:17.357Z,8.13
2022-12-08T07:53:53.190Z,8.10
2022-12-08T07:56:21.672Z,7.18
2022-12-08T07:58:49.069Z,8.88
2022-12-08T08:01:25.656Z,9.07
2022-12-08T08:03:54.685Z,20.77
2022-12-08T08:06:21.800Z,16.65
2022-12-08T08:08:49.417Z,13.77
2022-12-08T08:11:21.365Z,21.27
2022-12-08T08:13:51.098Z,9.73
2022-12-08T08:16:19.076Z,12.18
2022-12-08T08:18:51.050Z,9.70
2022-12-08T08:21:44.489Z,15.15
2022-12-08T08:24:07.311Z,16.00
2022-12-08T08:26:34.589Z,10.77
2022-12-08T08:29:01.987Z,17.17
2022-12-08T08:31:29.107Z,9.90
2022-12-08T08:33:57.374Z,11.18
2022-12-08T08:36:24.525Z,12.00
2022-12-08T08:38:53.014Z,11.90
2022-12-08T08:41:20.084Z,10.60
2022-12-08T08:43:47.524Z,26.67
2022-12-08T08:46:14.659Z,9.73
2022-12-08T08:48:42.350Z,11.05
2022-12-08T08:51:11.565Z,11.27
2022-12-08T08:53:40.572Z,14.68
2022-12-08T08:56:13.114Z,23.20
2022-12-08T08:58:40.975Z,30.90
2022-12-08T09:01:08.147Z,12.75
2022-12-08T09:03:35.686Z,37.45
2022-12-08T09:06:02.909Z,21.67
2022-12-08T09:08:30.544Z,22.60
2022-12-08T09:10:57.841Z,10.43
2022-12-08T09:13:25.351Z,13.80
2022-12-08T09:15:52.643Z,10.07
2022-12-08T09:18:21.408Z,20.10
2022-12-08T09:20:48.507Z,11.30
2022-12-08T09:23:17.178Z,12.85
2022-12-08T09:25:45.646Z,10.40
2022-12-08T09:28:14.616Z,15.60
2022-12-08T09:30:42.922Z,23.95
2022-12-08T09:33:10.534Z,11.38
2022-12-08T09:35:37.629Z,21.75
2022-12-08T09:38:05.224Z,34.40
2022-12-08T09:40:42.145Z,31.63
2022-12-08T09:43:32.722Z,11.60
2022-12-08T09:46:00.904Z,11.90
2022-12-08T09:48:34.258Z,8.63
2022-12-08T09:51:03.905Z,9.80
2022-12-08T09:53:37.320Z,8.70
2022-12-08T09:56:11.602Z,9.18
2022-12-08T09:59:02.419Z,9.60
2022-12-08T10:01:33.168Z,9.43
2022-12-08T10:04:01.283Z,11.77
2022-12-08T10:06:41.455Z,11.82
2022-12-08T10:09:31.998Z,10.55
2022-12-08T10:12:11.183Z,8.00
2022-12-08T10:14:53.868Z,7.57
2022-12-08T10:17:26.045Z,12.25
2022-12-08T10:19:59.905Z,7.05
2022-12-08T10:22:32.674Z,9.20
2022-12-08T10:25:15.745Z,9.35
2022-12-08T10:27:47.000Z,9.43
2022-12-08T10:30:17.015Z,9.63
2022-12-08T10:32:50.485Z,11.90
2022-12-08T10:35:20.751Z,10.50
2022-12-08T10:38:02.566Z,10.93
2022-12-08T10:40:42.328Z,12.07
2022-12-08T10:43:25.179Z,12.35
2022-12-08T10:46:10.288Z,9.30
2022-12-08T10:48:37.503Z,7.03
2022-12-08T10:51:05.745Z,8.10
2022-12-08T10:53:34.226Z,8.25
2022-12-08T10:56:01.768Z,8.23
2022-12-08T10:58:42.541Z,8.23
2022-12-08T11:01:14.686Z,8.55
2022-12-08T11:04:02.618Z,7.50
2022-12-08T11:06:55.786Z,9.50
2022-12-08T11:09:33.830Z,9.40
2022-12-08T11:12:16.708Z,10.32
2022-12-08T11:14:44.130Z,8.48
2022-12-08T11:17:24.778Z,9.25
2022-12-08T11:20:18.857Z,10.68
2022-12-08T11:22:54.405Z,8.45
2022-12-08T11:25:28.543Z,8.45
2022-12-08T11:28:00.277Z,11.32
2022-12-08T11:30:36.226Z,10.57
2022-12-08T11:33:25.497Z,10.95
2022-12-08T11:36:12.694Z,8.98
2022-12-08T11:38:47.525Z,7.00
2022-12-08T11:41:36.095Z,8.40
2022-12-08T11:44:30.231Z,8.23
2022-12-08T11:47:16.857Z,9.30
2022-12-08T11:52:14.760Z,8.25
2022-12-08T11:54:48.077Z,7.43
2022-12-08T11:57:20.918Z,7.10
2022-12-08T11:59:53.584Z,7.30
2022-12-08T12:02:24.448Z,7.55
2022-12-08T12:06:03.379Z,7.18
2022-12-08T12:08:55.691Z,7.97
2022-12-08T12:12:13.222Z,7.68
2022-12-08T12:15:36.774Z,7.88
2022-12-08T12:18:31.439Z,8.40
2022-12-08T12:21:09.970Z,7.65
2022-12-08T12:23:40.687Z,7.53
2022-12-08T12:26:16.823Z,6.97
2022-12-08T12:28:55.475Z,8.95
2022-12-08T12:31:50.322Z,7.35
2022-12-08T12:34:24.269Z,6.85
2022-12-08T12:37:14.806Z,7.40
2022-12-08T12:39:54.118Z,7.07
2022-12-08T12:42:44.357Z,6.35
2022-12-08T12:45:21.987Z,6.65
2022-12-08T12:47:56.864Z,7.50
2022-12-08T12:50:33.951Z,7.63
2022-12-08T12:53:05.104Z,7.72
2022-12-08T12:55:46.532Z,6.22
2022-12-08T12:58:22.410Z,6.38
2022-12-08T13:00:49.928Z,7.15
2022-12-08T13:03:18.382Z,7.15
2022-12-08T13:05:52.445Z,6.90
2022-12-08T13:08:26.297Z,7.35
2022-12-08T13:11:07.136Z,7.35
2022-12-08T13:13:35.451Z,8.82
2022-12-08T13:16:19.566Z,7.95
2022-12-08T13:18:50.291Z,9.00
2022-12-08T13:21:21.628Z,10.05
2022-12-08T13:24:09.599Z,10.48
2022-12-08T13:27:09.195Z,8.88
2022-12-08T13:29:38.529Z,9.55
2022-12-08T13:32:28.710Z,10.77
2022-12-08T13:35:00.331Z,11.25
2022-12-08T13:37:54.528Z,9.75
2022-12-08T13:40:30.376Z,10.55
2022-12-08T13:43:10.192Z,11.20
2022-12-08T13:46:41.888Z,10.23
2022-12-08T13:49:52.738Z,11.18
2022-12-08T13:57:34.425Z,10.48
2022-12-08T14:00:08.384Z,11.90
2022-12-08T14:02:48.778Z,10.98
2022-12-08T14:05:35.221Z,11.27
2022-12-08T14:08:50.366Z,11.63
2022-12-08T14:11:10.750Z,12.40
2022-12-08T14:13:38.343Z,12.57
2022-12-08T14:16:06.023Z,12.93
2022-12-08T14:18:33.533Z,12.88
2022-12-08T14:23:51.157Z,14.15
2022-12-08T14:26:18.634Z,14.75
2022-12-08T14:28:46.245Z,14.18
2022-12-08T14:31:14.864Z,14.07
2022-12-08T14:33:43.120Z,15.18
2022-12-08T14:36:12.673Z,16.70
2022-12-08T14:38:40.485Z,14.95
2022-12-08T14:41:10.887Z,14.02
2022-12-08T14:43:41.090Z,14.13
2022-12-08T14:46:28.739Z,13.95
2022-12-08T14:48:58.087Z,13.85
2022-12-08T14:51:33.500Z,14.85
2022-12-08T14:54:18.824Z,14.63
2022-12-08T14:56:53.435Z,15.13
2022-12-08T14:59:33.041Z,16.48
2022-12-08T15:02:19.613Z,15.27
2022-12-08T15:04:49.648Z,16.02
2022-12-08T15:07:38.970Z,16.33
2022-12-08T15:10:10.262Z,14.23
2022-12-08T15:12:37.590Z,15.02
2022-12-08T15:15:08.443Z,15.20
2022-12-08T15:17:40.949Z,15.95
2022-12-08T15:20:39.076Z,15.55
2022-12-08T15:23:13.682Z,15.85
2022-12-08T15:25:41.205Z,15.68
2022-12-08T15:28:12.324Z,17.55
2022-12-08T15:30:39.999Z,17.83
2022-12-08T15:33:07.363Z,16.92
2022-12-08T15:35:40.578Z,18.15
2022-12-08T15:38:18.942Z,19.58
2022-12-08T15:40:47.065Z,19.05
2022-12-08T15:43:14.634Z,19.23
2022-12-08T15:45:53.399Z,18.83
2022-12-08T15:48:29.738Z,20.88
2022-12-08T15:50:58.021Z,20.25
2022-12-08T15:53:25.478Z,22.20
2022-12-08T15:58:57.299Z,20.25
2022-12-08T16:01:26.154Z,21.00
2022-12-08T16:04:37.238Z,20.92
2022-12-08T16:07:19.684Z,22.58
2022-12-08T16:09:38.786Z,20.63
2022-12-08T16:12:48.349Z,22.90
2022-12-08T16:18:07.026Z,22.30
2022-12-08T16:23:41.825Z,22.25
2022-12-08T16:26:28.423Z,22.88
2022-12-08T16:29:00.983Z,21.00
2022-12-08T16:31:29.794Z,22.30
2022-12-08T16:33:57.435Z,21.60
2022-12-08T16:36:24.654Z,22.92
2022-12-08T16:38:52.171Z,23.52
2022-12-08T16:41:37.934Z,23.15
2022-12-08T16:44:06.248Z,24.95
2022-12-08T16:46:33.845Z,25.75
2022-12-08T16:49:01.522Z,26.27
2022-12-08T16:51:28.818Z,27.77
2022-12-08T16:53:57.160Z,26.98
2022-12-08T16:56:30.617Z,27.85
2022-12-08T16:59:01.177Z,25.88
2022-12-08T17:01:28.532Z,24.95
2022-12-08T17:04:29.223Z,30.92
2022-12-08T17:06:43.343Z,23.33
2022-12-08T17:09:11.158Z,25.23
2022-12-08T17:11:43.008Z,24.33
2022-12-08T17:14:13.112Z,24.10
2022-12-08T17:16:40.962Z,22.67
2022-12-08T17:19:08.561Z,26.80
2022-12-08T17:21:35.986Z,26.45
2022-12-08T17:24:03.924Z,24.08
2022-12-08T17:26:31.294Z,25.35
2022-12-08T17:29:00.847Z,27.38
2022-12-08T17:31:30.248Z,25.60
2022-12-08T17:34:03.028Z,25.60
2022-12-08T17:36:30.532Z,26.75
2022-12-08T17:39:00.534Z,29.98
2022-12-08T17:41:28.793Z,26.23
2022-12-08T17:43:56.847Z,28.85
2022-12-08T17:46:24.522Z,30.35
2022-12-08T17:48:52.551Z,26.08
2022-12-08T17:51:20.174Z,29.30
2022-12-08T17:53:47.613Z,26.00
2022-12-08T17:56:20.459Z,25.88
2022-12-08T17:58:53.961Z,25.70
2022-12-08T18:01:23.245Z,25.55
2022-12-08T18:03:51.377Z,28.90
2022-12-08T18:06:18.682Z,26.50
2022-12-08T18:08:46.339Z,33.55
2022-12-08T18:11:17.794Z,36.17
2022-12-08T18:13:46.749Z,28.30
2022-12-08T18:16:14.931Z,27.95
2022-12-08T18:18:42.458Z,29.73
2022-12-08T18:21:10.354Z,30.00
2022-12-08T18:23:39.216Z,29.77
2022-12-08T18:26:07.401Z,31.23
2022-12-08T18:28:35.096Z,27.38
2022-12-08T18:31:02.504Z,27.85
2022-12-08T18:33:30.033Z,28.20
2022-12-08T18:35:57.248Z,26.90
2022-12-08T18:38:24.926Z,27.83
2022-12-08T18:40:52.198Z,26.33
2022-12-08T18:43:19.850Z,24.15
2022-12-08T18:45:47.017Z,25.83
2022-12-08T18:48:14.571Z,26.90
2022-12-08T18:50:44.767Z,26.55
2022-12-08T18:53:12.521Z,25.48
2022-12-08T18:55:39.681Z,26.67
2022-12-08T18:58:07.269Z,28.00
2022-12-08T19:00:34.579Z,28.63
2022-12-08T19:03:02.344Z,25.38
2022-12-08T19:05:29.559Z,25.23
2022-12-08T19:07:59.203Z,29.02
2022-12-08T19:10:27.354Z,30.05
2022-12-08T19:12:54.848Z,27.48
2022-12-08T19:15:22.250Z,26.20
2022-12-08T19:17:49.886Z,29.33
2022-12-08T19:20:17.113Z,28.88
2022-12-08T19:22:44.684Z,32.42
2022-12-08T19:25:12.344Z,30.42
2022-12-08T19:27:39.810Z,59.63
2022-12-08T19:30:08.011Z,31.85
2022-12-08T19:32:37.938Z,36.72
2022-12-08T19:35:07.654Z,28.13
2022-12-08T19:37:35.802Z,29.67
2022-12-08T19:40:25.725Z,24.05
2022-12-08T19:43:12.266Z,30.33
2022-12-08T19:45:39.985Z,24.27
2022-12-08T19:48:08.792Z,26.38
2022-12-08T19:50:36.201Z,24.58
2022-12-08T19:53:15.510Z,25.30
2022-12-08T19:55:44.338Z,25.25
2022-12-08T19:58:15.028Z,24.65
2022-12-08T20:00:44.983Z,24.75
2022-12-08T20:03:18.775Z,26.42
2022-12-08T20:05:50.399Z,27.35
2022-12-08T20:08:18.014Z,24.75
2022-12-08T20:10:46.379Z,27.02
2022-12-08T20:13:32.420Z,28.85
2022-12-08T20:16:00.409Z,24.65
2022-12-08T20:18:28.801Z,27.70
2022-12-08T20:20:57.078Z,41.67
2022-12-08T20:23:24.744Z,32.95
2022-12-08T20:25:52.031Z,24.02
2022-12-08T20:28:19.859Z,23.90
2022-12-08T20:30:49.077Z,23.05
2022-12-08T20:33:18.117Z,23.42
2022-12-08T20:35:46.605Z,23.45
2022-12-08T20:38:14.402Z,21.92
2022-12-08T20:40:46.482Z,22.58
2022-12-08T20:43:14.015Z,30.30
2022-12-08T20:45:41.298Z,24.38
2022-12-08T20:48:08.815Z,23.13
2022-12-08T20:50:36.177Z,25.48
2022-12-08T20:53:04.994Z,26.23
2022-12-08T20:55:32.372Z,24.63
2022-12-08T20:57:59.962Z,26.45
2022-12-08T21:00:28.222Z,24.42
2022-12-08T21:02:56.956Z,28.27
2022-12-08T21:05:24.822Z,26.50
2022-12-08T21:07:52.653Z,25.23
2022-12-08T21:10:20.393Z,27.08
2022-12-08T21:12:48.212Z,26.50
2022-12-08T21:15:15.543Z,27.20
2022-12-08T21:17:43.139Z,28.25
2022-12-08T21:20:11.772Z,26.35
2022-12-08T21:22:40.308Z,25.92
2022-12-08T21:25:08.911Z,26.13
2022-12-08T21:27:38.688Z,27.00
2022-12-08T21:30:09.056Z,23.23
2022-12-08T21:32:39.096Z,25.58
2022-12-08T21:35:07.360Z,26.75
2022-12-08T21:37:35.833Z,26.13
2022-12-08T21:40:03.220Z,22.77
2022-12-08T21:42:46.371Z,25.38
2022-12-08T21:45:19.412Z,25.00
2022-12-08T21:47:48.402Z,24.08
2022-12-08T21:50:17.238Z,25.95
2022-12-08T21:52:47.926Z,25.25
2022-12-08T21:55:16.961Z,25.98
2022-12-08T21:57:44.521Z,26.92
2022-12-08T22:00:15.028Z,26.73
2022-12-08T22:02:43.314Z,25.73
2022-12-08T22:05:11.893Z,23.92
2022-12-08T22:07:40.562Z,26.27
2022-12-08T22:10:10.821Z,25.92
2022-12-08T22:12:39.559Z,25.27
2022-12-08T22:15:08.731Z,26.05
2022-12-08T22:17:38.873Z,28.70
2022-12-08T22:20:08.441Z,26.00
2022-12-08T22:22:36.244Z,26.00
2022-12-08T22:25:05.270Z,24.90
2022-12-08T22:27:36.325Z,23.95
2022-12-08T22:30:04.667Z,24.67
2022-12-08T22:32:32.760Z,25.20
2022-12-08T22:35:00.188Z,23.65
2022-12-08T22:37:28.621Z,24.65
2022-12-08T22:39:55.967Z,22.55
2022-12-08T22:42:23.514Z,24.70
2022-12-08T22:44:50.966Z,24.05
2022-12-08T22:47:18.596Z,25.00
2022-12-08T22:49:45.848Z,21.17
2022-12-08T22:52:13.332Z,21.92
2022-12-08T22:54:40.638Z,23.25
2022-12-08T22:57:08.133Z,23.17
2022-12-08T22:59:35.415Z,22.75
2022-12-08T23:02:03.145Z,20.38
2022-12-08T23:04:30.557Z,20.77
2022-12-08T23:06:58.153Z,24.52
2022-12-08T23:09:25.305Z,21.05
2022-12-08T23:11:53.580Z,20.83
2022-12-08T23:14:20.822Z,22.15
2022-12-08T23:16:48.801Z,21.35
2022-12-08T23:19:16.144Z,22.15
2022-12-08T23:21:43.741Z,21.85
2022-12-08T23:24:10.891Z,21.05
2022-12-08T23:26:38.658Z,22.42
2022-12-08T23:31:50.659Z,21.08
2022-12-08T23:34:17.968Z,22.48
2022-12-08T23:36:45.474Z,20.35
2022-12-08T23:39:13.204Z,22.63
2022-12-08T23:41:40.938Z,22.00
2022-12-08T23:44:09.287Z,21.77
2022-12-08T23:46:37.113Z,22.27
2022-12-08T23:49:04.404Z,22.38
2022-12-08T23:51:32.405Z,23.15
2022-12-08T23:53:59.840Z,21.52
2022-12-08T23:56:30.436Z,22.23
2022-12-08T23:58:58.145Z,22.48
